createdAt,value
2024-05-09T00:00:22.514Z,10.3451
2024-05-09T00:01:18.931Z,10.3936
2024-05-09T00:02:19.790Z,10.4277
2024-05-09T00:03:22.305Z,10.4595
2024-05-09T00:04:22.234Z,10.5044
2024-05-09T00:05:24.431Z,10.4567
2024-05-09T00:06:24.375Z,10.4079
2024-05-09T00:07:26.423Z,10.4097
2024-05-09T00:08:28.827Z,10.3700
2024-05-09T00:09:31.022Z,10.4358
2024-05-09T00:10:36.970Z,10.4352
2024-05-09T00:11:34.145Z,10.4738
2024-05-09T00:12:36.326Z,10.5071
2024-05-09T00:13:38.506Z,10.4813
2024-05-09T00:14:40.748Z,10.4621
2024-05-09T00:15:42.905Z,10.4547
2024-05-09T00:16:45.086Z,10.4714
2024-05-09T00:17:47.417Z,10.4245
2024-05-09T00:18:47.467Z,10.4715
2024-05-09T00:19:48.991Z,10.4766
2024-05-09T00:20:49.789Z,10.5056
2024-05-09T00:21:49.574Z,10.4888
2024-05-09T00:22:51.776Z,10.4574
2024-05-09T00:23:52.351Z,10.4574
2024-05-09T00:24:53.238Z,10.3901
2024-05-09T00:25:55.427Z,10.4132
2024-05-09T00:26:57.629Z,10.3849
2024-05-09T00:27:59.820Z,10.3806
2024-05-09T00:29:02.219Z,10.3752
2024-05-09T00:30:04.207Z,10.3639
2024-05-09T00:31:04.175Z,10.3541
2024-05-09T00:32:06.414Z,10.3244
2024-05-09T00:33:07.859Z,10.3516
2024-05-09T00:34:07.094Z,10.3327
2024-05-09T00:35:07.055Z,10.3537
2024-05-09T00:36:09.346Z,10.3391
2024-05-09T00:37:11.553Z,10.3304
2024-05-09T00:38:13.780Z,10.3016
2024-05-09T00:39:15.987Z,10.2902
2024-05-09T00:40:26.568Z,10.2807
2024-05-09T00:41:19.928Z,10.2122
2024-05-09T00:42:19.844Z,10.2475
2024-05-09T00:43:22.070Z,10.2406
2024-05-09T00:44:24.518Z,10.2317
2024-05-09T00:45:24.503Z,10.2640
2024-05-09T00:46:24.487Z,10.2503
2024-05-09T00:47:26.886Z,10.2734
2024-05-09T00:48:27.188Z,10.2636
2024-05-09T00:49:28.520Z,10.3023
2024-05-09T00:50:35.230Z,10.3230
2024-05-09T00:51:29.411Z,10.3431
2024-05-09T00:52:31.612Z,10.3344
2024-05-09T00:53:33.950Z,10.3741
2024-05-09T00:54:33.938Z,10.3902
2024-05-09T00:55:36.150Z,10.3829
2024-05-09T00:56:36.283Z,10.4077
2024-05-09T00:57:38.580Z,10.4279
2024-05-09T00:58:40.800Z,10.4513
2024-05-09T00:59:43.018Z,10.4713
2024-05-09T01:00:45.422Z,10.4846
2024-05-09T01:01:48.407Z,10.5090
2024-05-09T01:02:48.357Z,10.5223
2024-05-09T01:03:51.672Z,10.5220
2024-05-09T01:04:51.996Z,10.5401
2024-05-09T01:05:52.032Z,10.5475
2024-05-09T01:06:52.006Z,10.5786
2024-05-09T01:07:54.158Z,10.5913
2024-05-09T01:08:56.437Z,10.6141
2024-05-09T01:09:58.776Z,10.6288
2024-05-09T01:11:01.386Z,10.6556
2024-05-09T01:12:02.523Z,10.6784
2024-05-09T01:13:02.868Z,10.7036
2024-05-09T01:14:05.202Z,10.7021
2024-05-09T01:15:07.521Z,10.7041
2024-05-09T01:16:12.821Z,10.7402
2024-05-09T01:17:11.307Z,10.7468
2024-05-09T01:18:12.477Z,10.7549
2024-05-09T01:19:13.789Z,10.7533
2024-05-09T01:20:20.052Z,10.7771
2024-05-09T01:21:14.968Z,10.7875
2024-05-09T01:22:14.927Z,10.7464
2024-05-09T01:23:17.224Z,10.7598
2024-05-09T01:24:17.926Z,10.7931
2024-05-09T01:25:20.265Z,10.8010
2024-05-09T01:26:22.387Z,10.7851
2024-05-09T01:27:24.724Z,10.8043
2024-05-09T01:28:26.792Z,10.7963
2024-05-09T01:29:29.166Z,10.7673
2024-05-09T01:30:35.111Z,10.7740
2024-05-09T01:31:32.222Z,10.7602
2024-05-09T01:32:34.649Z,10.7679
2024-05-09T01:33:34.724Z,10.7947
2024-05-09T01:34:34.622Z,10.7533
2024-05-09T01:35:36.962Z,10.7682
2024-05-09T01:36:36.766Z,10.7822
2024-05-09T01:37:39.857Z,10.8090
2024-05-09T01:38:39.624Z,10.8067
2024-05-09T01:39:41.704Z,10.7850
2024-05-09T01:40:43.937Z,10.8026
2024-05-09T01:41:46.181Z,10.7895
2024-05-09T01:42:48.429Z,10.7840
2024-05-09T01:43:50.604Z,10.7877
2024-05-09T01:44:52.760Z,10.7983
2024-05-09T01:45:54.926Z,10.8038
2024-05-09T01:46:57.247Z,10.8004
2024-05-09T01:47:59.741Z,10.8218
2024-05-09T01:48:59.833Z,10.8317
2024-05-09T01:49:59.745Z,10.8200
2024-05-09T01:51:01.949Z,10.8370
2024-05-09T01:52:01.936Z,10.8247
2024-05-09T01:53:04.161Z,10.8317
2024-05-09T01:54:06.464Z,10.8229
2024-05-09T01:55:08.554Z,10.8258
2024-05-09T01:56:10.795Z,10.8279
2024-05-09T01:57:12.847Z,10.8271
2024-05-09T01:58:15.110Z,10.8522
2024-05-09T01:59:17.252Z,10.8331
2024-05-09T02:00:30.157Z,10.8489
2024-05-09T02:01:20.303Z,10.8592
2024-05-09T02:02:22.627Z,10.8548
2024-05-09T02:03:25.038Z,10.8465
2024-05-09T02:04:25.051Z,10.8549
2024-05-09T02:05:25.029Z,10.8598
2024-05-09T02:06:27.099Z,10.8534
2024-05-09T02:07:29.190Z,10.8231
2024-05-09T02:08:31.490Z,10.8489
2024-05-09T02:09:31.533Z,10.8603
2024-05-09T02:10:33.875Z,10.8704
2024-05-09T02:11:33.996Z,10.8558
2024-05-09T02:12:33.877Z,10.8395
2024-05-09T02:13:33.740Z,10.8582
2024-05-09T02:14:36.054Z,10.8608
2024-05-09T02:15:37.022Z,10.8861
2024-05-09T02:16:39.374Z,10.9250
2024-05-09T02:17:40.511Z,10.9281
2024-05-09T02:18:40.586Z,10.9282
2024-05-09T02:19:41.430Z,10.9309
2024-05-09T02:20:44.148Z,10.9456
2024-05-09T02:21:44.121Z,10.9430
2024-05-09T02:22:46.386Z,10.9574
2024-05-09T02:23:46.372Z,10.9536
2024-05-09T02:24:48.540Z,10.9653
2024-05-09T02:25:50.738Z,10.9774
2024-05-09T02:26:52.888Z,10.9850
2024-05-09T02:27:55.056Z,10.9853
2024-05-09T02:28:57.323Z,10.9776
2024-05-09T02:29:59.492Z,10.9484
2024-05-09T02:31:01.698Z,10.9699
2024-05-09T02:32:02.977Z,10.9635
2024-05-09T02:33:03.463Z,10.9558
2024-05-09T02:34:03.420Z,10.9702
2024-05-09T02:35:03.423Z,10.9770
2024-05-09T02:36:03.365Z,10.9772
2024-05-09T02:37:05.734Z,10.9731
2024-05-09T02:38:06.692Z,10.9995
2024-05-09T02:39:06.756Z,11.0155
2024-05-09T02:40:14.273Z,11.0010
2024-05-09T02:41:10.083Z,10.9879
2024-05-09T02:42:12.333Z,10.9895
2024-05-09T02:43:14.566Z,11.0066
2024-05-09T02:44:16.896Z,10.9842
2024-05-09T02:45:16.807Z,11.0234
2024-05-09T02:46:19.172Z,11.0180
2024-05-09T02:47:21.757Z,10.9985
2024-05-09T02:48:21.821Z,11.0037
2024-05-09T02:49:24.221Z,10.9993
2024-05-09T02:50:33.060Z,11.0058
2024-05-09T02:51:26.870Z,11.0184
2024-05-09T02:52:27.293Z,11.0103
2024-05-09T02:53:27.157Z,11.0105
2024-05-09T02:54:29.323Z,11.0147
2024-05-09T02:55:31.605Z,10.9890
2024-05-09T02:56:34.045Z,10.9880
2024-05-09T02:57:36.174Z,10.9954
2024-05-09T02:58:38.440Z,10.9402
2024-05-09T02:59:40.730Z,10.9444
2024-05-09T03:00:42.831Z,10.9440
2024-05-09T03:01:42.492Z,10.9418
2024-05-09T03:02:42.735Z,10.9386
2024-05-09T03:03:42.730Z,10.9419
2024-05-09T03:04:42.759Z,10.9378
2024-05-09T03:05:45.394Z,10.9322
2024-05-09T03:06:45.457Z,10.9444
2024-05-09T03:07:46.409Z,10.9474
2024-05-09T03:08:46.270Z,10.9538
2024-05-09T03:09:48.389Z,10.9330
2024-05-09T03:10:50.584Z,10.9384
2024-05-09T03:11:52.981Z,10.9356
2024-05-09T03:12:52.928Z,10.9502
2024-05-09T03:13:55.099Z,10.9448
2024-05-09T03:14:57.200Z,10.9553
2024-05-09T03:15:59.537Z,10.9721
2024-05-09T03:17:01.915Z,10.9749
2024-05-09T03:18:02.142Z,10.9420
2024-05-09T03:19:02.465Z,10.9331
2024-05-09T03:20:05.110Z,10.9436
2024-05-09T03:21:04.355Z,10.9276
2024-05-09T03:22:06.660Z,10.9302
2024-05-09T03:23:06.795Z,10.9229
2024-05-09T03:24:09.167Z,10.9075
2024-05-09T03:25:11.351Z,10.8877
2024-05-09T03:26:13.665Z,10.9066
2024-05-09T03:27:15.908Z,10.9002
2024-05-09T03:28:15.763Z,10.9002
2024-05-09T03:29:18.078Z,10.9076
2024-05-09T03:30:29.289Z,10.9163
2024-05-09T03:31:18.947Z,10.9036
2024-05-09T03:32:21.488Z,10.9207
2024-05-09T03:33:21.835Z,10.9221
2024-05-09T03:34:22.058Z,10.8958
2024-05-09T03:35:25.005Z,10.8990
2024-05-09T03:36:24.993Z,10.8821
2024-05-09T03:37:25.464Z,10.8896
2024-05-09T03:38:26.242Z,10.8804
2024-05-09T03:39:28.530Z,10.8868
2024-05-09T03:40:31.401Z,10.8761
2024-05-09T03:41:31.480Z,10.9033
2024-05-09T03:42:31.932Z,10.8905
2024-05-09T03:43:31.822Z,10.8979
2024-05-09T03:44:34.217Z,10.8877
2024-05-09T03:45:34.191Z,10.8831
2024-05-09T03:46:36.417Z,10.8848
2024-05-09T03:47:38.848Z,10.8948
2024-05-09T03:48:38.968Z,10.8836
2024-05-09T03:49:41.206Z,10.8801
2024-05-09T03:50:43.610Z,10.8675
2024-05-09T03:51:44.082Z,10.8679
2024-05-09T03:52:44.024Z,10.8795
2024-05-09T03:53:44.273Z,10.8437
2024-05-09T03:54:46.434Z,10.8624
2024-05-09T03:55:48.620Z,10.8740
2024-05-09T03:56:50.938Z,10.8797
2024-05-09T03:57:53.271Z,10.8673
2024-05-09T03:58:55.592Z,10.8860
2024-05-09T03:59:57.744Z,10.8871
2024-05-09T04:01:00.963Z,10.8862
2024-05-09T04:02:01.995Z,10.8719
2024-05-09T04:03:02.330Z,10.8979
2024-05-09T04:04:02.510Z,10.8948
2024-05-09T04:05:04.893Z,10.9013
2024-05-09T04:06:05.411Z,10.9089
2024-05-09T04:07:05.273Z,10.9133
2024-05-09T04:08:07.710Z,10.9240
2024-05-09T04:09:07.639Z,10.9300
2024-05-09T04:10:16.994Z,10.9418
2024-05-09T04:11:10.992Z,10.9484
2024-05-09T04:12:12.023Z,10.9403
2024-05-09T04:13:13.015Z,10.9585
2024-05-09T04:14:15.293Z,10.9620
2024-05-09T04:15:15.580Z,10.9538
2024-05-09T04:16:17.755Z,10.9659
2024-05-09T04:17:20.595Z,10.9370
2024-05-09T04:18:22.442Z,10.9481
2024-05-09T04:19:24.640Z,10.9296
2024-05-09T04:20:33.909Z,10.9582
2024-05-09T04:21:25.563Z,10.9526
2024-05-09T04:22:27.718Z,10.9634
2024-05-09T04:23:30.009Z,10.9773
2024-05-09T04:24:29.998Z,10.9727
2024-05-09T04:25:32.275Z,10.9382
2024-05-09T04:26:34.627Z,10.9474
2024-05-09T04:27:37.832Z,10.9586
2024-05-09T04:28:37.707Z,10.9609
2024-05-09T04:29:40.028Z,10.9464
2024-05-09T04:30:42.684Z,10.9750
2024-05-09T04:31:43.022Z,10.9655
2024-05-09T04:32:45.427Z,10.9778
2024-05-09T04:33:46.732Z,10.9926
2024-05-09T04:34:46.752Z,11.0002
2024-05-09T04:35:48.999Z,10.9980
2024-05-09T04:36:51.180Z,10.9753
2024-05-09T04:37:51.469Z,10.9758
2024-05-09T04:38:53.677Z,11.0016
2024-05-09T04:39:55.920Z,11.0078
2024-05-09T04:40:58.103Z,11.0149
2024-05-09T04:42:00.293Z,11.0403
2024-05-09T04:43:02.382Z,11.0512
2024-05-09T04:44:04.548Z,11.0324
2024-05-09T04:45:06.692Z,11.0531
2024-05-09T04:46:08.902Z,11.0740
2024-05-09T04:47:11.986Z,11.0507
2024-05-09T04:48:12.177Z,11.0575
2024-05-09T04:49:12.106Z,11.0496
2024-05-09T04:50:21.182Z,11.0483
2024-05-09T04:51:15.381Z,11.0695
2024-05-09T04:52:18.376Z,11.0684
2024-05-09T04:53:18.428Z,11.0394
2024-05-09T04:54:26.209Z,11.0638
2024-05-09T04:55:19.449Z,11.0539
2024-05-09T04:56:21.644Z,11.0517
2024-05-09T04:57:23.880Z,11.0145
2024-05-09T04:58:25.980Z,11.0703
2024-05-09T04:59:28.328Z,11.0823
2024-05-09T05:00:35.035Z,11.1069
2024-05-09T05:01:29.292Z,11.1274
2024-05-09T05:02:31.616Z,11.1359
2024-05-09T05:03:34.036Z,11.1294
2024-05-09T05:04:33.998Z,11.1256
2024-05-09T05:05:36.266Z,11.1571
2024-05-09T05:06:38.544Z,11.1540
2024-05-09T05:07:40.648Z,11.1753
2024-05-09T05:08:42.863Z,11.1739
2024-05-09T05:09:45.024Z,11.1682
2024-05-09T05:10:47.945Z,11.1369
2024-05-09T05:11:49.572Z,11.1234
2024-05-09T05:12:51.521Z,11.1539
2024-05-09T05:13:52.475Z,11.1517
2024-05-09T05:14:54.957Z,11.1358
2024-05-09T05:15:54.860Z,11.1539
2024-05-09T05:16:55.772Z,11.1578
2024-05-09T05:17:55.884Z,11.1710
2024-05-09T05:18:56.130Z,11.2012
2024-05-09T05:19:57.250Z,11.2106
2024-05-09T05:20:57.397Z,11.2218
2024-05-09T05:21:57.448Z,11.2195
2024-05-09T05:22:58.256Z,11.2621
2024-05-09T05:24:00.560Z,11.2750
2024-05-09T05:25:02.877Z,11.2940
2024-05-09T05:26:03.305Z,11.3417
2024-05-09T05:27:04.240Z,11.3610
2024-05-09T05:28:06.568Z,11.3369
2024-05-09T05:29:08.905Z,11.3692
2024-05-09T05:30:17.628Z,11.3564
2024-05-09T05:31:13.097Z,11.3884
2024-05-09T05:32:13.194Z,11.3725
2024-05-09T05:33:13.582Z,11.3847
2024-05-09T05:34:14.123Z,11.3795
2024-05-09T05:35:16.401Z,11.3566
2024-05-09T05:36:16.346Z,11.3318
2024-05-09T05:37:18.505Z,11.3571
2024-05-09T05:38:24.827Z,11.3485
2024-05-09T05:39:21.866Z,11.3856
2024-05-09T05:40:32.356Z,11.3696
2024-05-09T05:41:25.452Z,11.4547
2024-05-09T05:42:25.753Z,11.5173
2024-05-09T05:43:28.035Z,11.4948
2024-05-09T05:44:30.432Z,11.4443
2024-05-09T05:45:30.358Z,11.4929
2024-05-09T05:46:32.683Z,11.5493
2024-05-09T05:47:35.218Z,11.5426
2024-05-09T05:48:35.331Z,11.5556
2024-05-09T05:49:37.820Z,11.5478
2024-05-09T05:50:38.779Z,11.5080
2024-05-09T05:51:38.954Z,11.5193
2024-05-09T05:52:41.245Z,11.4867
2024-05-09T05:53:42.288Z,11.5118
2024-05-09T05:54:42.282Z,11.5111
2024-05-09T05:55:44.718Z,11.4652
2024-05-09T05:56:44.996Z,11.5293
2024-05-09T05:57:45.135Z,11.5438
2024-05-09T05:58:47.378Z,11.5344
2024-05-09T05:59:49.677Z,11.5396
2024-05-09T06:00:52.413Z,11.5353
2024-05-09T06:01:52.365Z,11.5252
2024-05-09T06:02:52.462Z,11.5182
2024-05-09T06:03:53.484Z,11.4731
2024-05-09T06:04:54.046Z,11.5294
2024-05-09T06:05:54.120Z,11.5327
2024-05-09T06:06:56.353Z,11.5258
2024-05-09T06:07:58.698Z,11.5812
2024-05-09T06:08:58.982Z,11.6174
2024-05-09T06:10:01.280Z,11.6436
2024-05-09T06:11:03.751Z,11.7211
2024-05-09T06:12:03.831Z,11.7302
2024-05-09T06:13:05.365Z,11.7310
2024-05-09T06:14:05.282Z,11.7328
2024-05-09T06:15:07.649Z,11.7710
2024-05-09T06:16:09.959Z,11.8323
2024-05-09T06:17:12.399Z,11.8547
2024-05-09T06:18:13.014Z,11.8573
2024-05-09T06:19:13.218Z,11.8751
2024-05-09T06:20:20.560Z,11.9500
2024-05-09T06:21:15.482Z,11.9941
2024-05-09T06:22:15.960Z,12.0091
2024-05-09T06:23:18.214Z,12.0997
2024-05-09T06:24:18.598Z,12.1627
2024-05-09T06:25:20.839Z,12.1181
2024-05-09T06:26:23.223Z,12.1700
2024-05-09T06:27:23.963Z,12.2970
2024-05-09T06:28:23.788Z,12.3002
2024-05-09T06:29:26.144Z,12.4156
2024-05-09T06:30:34.902Z,12.5310
2024-05-09T06:31:27.010Z,12.6152
2024-05-09T06:32:29.321Z,12.6229
2024-05-09T06:33:29.585Z,12.6846
2024-05-09T06:34:29.783Z,12.8002
2024-05-09T06:35:29.858Z,12.7969
2024-05-09T06:36:30.402Z,12.6987
2024-05-09T06:37:30.303Z,12.8994
2024-05-09T06:38:32.591Z,12.9509
2024-05-09T06:39:32.543Z,12.9396
2024-05-09T06:40:38.323Z,13.0057
2024-05-09T06:41:35.849Z,13.0557
2024-05-09T06:42:38.070Z,13.0210
2024-05-09T06:43:40.131Z,13.0901
2024-05-09T06:44:42.291Z,13.1246
2024-05-09T06:45:44.481Z,13.1563
2024-05-09T06:46:46.868Z,13.1589
2024-05-09T06:47:46.954Z,13.2370
2024-05-09T06:48:50.503Z,13.3578
2024-05-09T06:49:50.623Z,13.3965
2024-05-09T06:50:50.726Z,13.6170
2024-05-09T06:51:50.751Z,13.8312
2024-05-09T06:52:52.915Z,13.8892
2024-05-09T06:53:55.067Z,13.3924
2024-05-09T06:54:57.356Z,13.3026
2024-05-09T06:55:59.630Z,13.4186
2024-05-09T06:57:01.932Z,13.2957
2024-05-09T06:58:03.993Z,12.7194
2024-05-09T06:59:06.325Z,12.9800
2024-05-09T07:00:15.466Z,13.1777
2024-05-09T07:01:09.600Z,13.2737
2024-05-09T07:02:09.635Z,13.2301
2024-05-09T07:03:10.078Z,13.2578
2024-05-09T07:04:11.303Z,13.3308
2024-05-09T07:05:11.627Z,13.3801
2024-05-09T07:06:11.656Z,13.4365
2024-05-09T07:07:14.045Z,13.4127
2024-05-09T07:08:16.554Z,13.3983
2024-05-09T07:09:16.789Z,13.1370
2024-05-09T07:10:22.143Z,13.2115
2024-05-09T07:11:18.025Z,13.2139
2024-05-09T07:12:19.090Z,13.1649
2024-05-09T07:13:19.107Z,13.1041
2024-05-09T07:14:21.552Z,12.8962
2024-05-09T07:15:21.795Z,12.9866
2024-05-09T07:16:21.800Z,13.0660
2024-05-09T07:17:24.240Z,13.0900
2024-05-09T07:18:24.504Z,13.0513
2024-05-09T07:19:25.012Z,13.0364
2024-05-09T07:20:32.491Z,13.0077
2024-05-09T07:21:26.093Z,13.0253
2024-05-09T07:22:25.976Z,13.0948
2024-05-09T07:23:26.044Z,13.1101
2024-05-09T07:24:26.042Z,13.1710
2024-05-09T07:25:28.369Z,13.2804
2024-05-09T07:26:28.329Z,13.2733
2024-05-09T07:27:29.916Z,13.2774
2024-05-09T07:28:30.073Z,13.5764
2024-05-09T07:29:34.714Z,13.5481
2024-05-09T07:30:34.765Z,13.6062
2024-05-09T07:31:35.162Z,13.5725
2024-05-09T07:32:37.567Z,13.6483
2024-05-09T07:33:38.570Z,13.8060
2024-05-09T07:34:38.634Z,13.6976
2024-05-09T07:35:38.839Z,13.6571
2024-05-09T07:36:39.886Z,13.6496
2024-05-09T07:37:42.215Z,13.7859
2024-05-09T07:38:42.242Z,13.8887
2024-05-09T07:39:42.552Z,13.9034
2024-05-09T07:40:42.575Z,13.8893
2024-05-09T07:41:44.912Z,13.8759
2024-05-09T07:42:44.995Z,13.7351
2024-05-09T07:43:47.329Z,13.7190
2024-05-09T07:44:49.573Z,13.6762
2024-05-09T07:45:54.468Z,13.6872
2024-05-09T07:48:13.727Z,13.7072
2024-05-09T07:50:34.746Z,13.7278
2024-05-09T07:53:22.002Z,13.6714
2024-05-09T07:54:01.395Z,13.6620
2024-05-09T07:55:02.035Z,13.5243
2024-05-09T07:56:02.171Z,13.6216
2024-05-09T07:57:03.385Z,13.6178
2024-05-09T07:58:03.485Z,13.7458
2024-05-09T07:59:05.812Z,13.8932
2024-05-09T08:00:06.680Z,13.7591
2024-05-09T08:01:07.043Z,13.8288
2024-05-09T08:02:07.086Z,13.8709
2024-05-09T08:03:07.013Z,13.8967
2024-05-09T08:04:09.274Z,13.5538
2024-05-09T08:05:09.388Z,13.0971
2024-05-09T08:06:10.390Z,13.5114
2024-05-09T08:07:12.697Z,13.5544
2024-05-09T08:08:14.997Z,13.8596
2024-05-09T08:09:21.013Z,13.7828
2024-05-09T08:10:22.107Z,13.5623
2024-05-09T08:11:18.310Z,13.3501
2024-05-09T08:12:20.612Z,13.3746
2024-05-09T08:13:23.135Z,13.7219
2024-05-09T08:14:23.196Z,13.9113
2024-05-09T08:15:25.486Z,13.9002
2024-05-09T08:16:25.578Z,13.9828
2024-05-09T08:17:25.569Z,14.0391
2024-05-09T08:18:27.990Z,14.1947
2024-05-09T08:19:28.085Z,14.2752
2024-05-09T08:20:33.720Z,14.3547
2024-05-09T08:21:31.482Z,14.2803
2024-05-09T08:22:32.439Z,14.2551
2024-05-09T08:23:34.700Z,14.2541
2024-05-09T08:24:36.984Z,14.1129
2024-05-09T08:25:39.196Z,13.9910
2024-05-09T08:26:41.466Z,13.9586
2024-05-09T08:27:42.555Z,14.0475
2024-05-09T08:28:42.416Z,13.9592
2024-05-09T08:29:44.713Z,13.9900
2024-05-09T08:30:44.840Z,13.9831
2024-05-09T08:31:45.839Z,14.0069
2024-05-09T08:32:48.353Z,14.0453
2024-05-09T08:33:48.668Z,13.9784
2024-05-09T08:34:48.721Z,14.1162
2024-05-09T08:35:50.024Z,14.1093
2024-05-09T08:36:52.376Z,14.0773
2024-05-09T08:37:53.069Z,13.9938
2024-05-09T08:38:53.062Z,13.9906
2024-05-09T08:39:53.204Z,13.8919
2024-05-09T08:40:55.593Z,14.0110
2024-05-09T08:41:55.650Z,14.1271
2024-05-09T08:42:57.874Z,14.0592
2024-05-09T08:44:00.121Z,14.1184
2024-05-09T08:45:02.303Z,14.0928
2024-05-09T08:46:02.393Z,14.2392
2024-05-09T08:47:02.981Z,14.2745
2024-05-09T08:48:05.421Z,14.6457
2024-05-09T08:49:06.058Z,14.2388
2024-05-09T08:50:08.570Z,14.7636
2024-05-09T08:51:06.583Z,14.5561
2024-05-09T08:52:07.546Z,14.6633
2024-05-09T08:53:07.856Z,14.8479
2024-05-09T08:54:07.937Z,14.9196
2024-05-09T08:55:10.363Z,15.0186
2024-05-09T08:56:10.502Z,15.1492
2024-05-09T08:57:12.721Z,15.2427
2024-05-09T08:58:15.353Z,15.3193
2024-05-09T08:59:16.168Z,15.2765
2024-05-09T09:00:29.049Z,15.2908
2024-05-09T09:01:19.702Z,15.1908
2024-05-09T09:02:21.293Z,15.1947
2024-05-09T09:03:21.850Z,15.1542
2024-05-09T09:04:24.259Z,15.1559
2024-05-09T09:05:24.426Z,15.0962
2024-05-09T09:06:24.357Z,15.0319
2024-05-09T09:07:26.784Z,15.0426
2024-05-09T09:08:27.683Z,14.8050
2024-05-09T09:09:27.996Z,14.8024
2024-05-09T09:10:32.360Z,14.6555
2024-05-09T09:11:30.827Z,14.6764
2024-05-09T09:12:33.107Z,14.6813
2024-05-09T09:13:35.350Z,14.5032
2024-05-09T09:14:37.596Z,14.4177
2024-05-09T09:15:37.664Z,14.1789
2024-05-09T09:16:39.938Z,14.3475
2024-05-09T09:17:42.387Z,14.4721
2024-05-09T09:18:42.644Z,14.4845
2024-05-09T09:19:42.584Z,14.6342
2024-05-09T09:20:45.005Z,14.7864
2024-05-09T09:21:45.060Z,14.7873
2024-05-09T09:22:45.122Z,14.8249
2024-05-09T09:23:47.527Z,14.8509
2024-05-09T09:24:49.724Z,14.8303
2024-05-09T09:25:50.863Z,14.8372
2024-05-09T09:26:51.713Z,14.9371
2024-05-09T09:27:53.991Z,15.0020
2024-05-09T09:28:54.037Z,15.2906
2024-05-09T09:29:56.322Z,15.5958
2024-05-09T09:30:56.238Z,15.7062
2024-05-09T09:31:58.466Z,15.9922
2024-05-09T09:33:01.009Z,16.1119
2024-05-09T09:34:01.283Z,16.2178
2024-05-09T09:35:01.395Z,16.0111
2024-05-09T09:36:01.531Z,15.9012
2024-05-09T09:37:03.823Z,15.8156
2024-05-09T09:38:03.823Z,15.8152
2024-05-09T09:39:06.062Z,15.8839
2024-05-09T09:40:08.949Z,15.7351
2024-05-09T09:41:08.895Z,15.6514
2024-05-09T09:42:09.804Z,15.6111
2024-05-09T09:43:12.212Z,15.7035
2024-05-09T09:44:12.279Z,15.7015
2024-05-09T09:45:14.632Z,15.8102
2024-05-09T09:46:17.121Z,15.9605
2024-05-09T09:47:17.373Z,15.9074
2024-05-09T09:48:19.748Z,16.0320
2024-05-09T09:49:21.538Z,16.1694
2024-05-09T09:50:27.706Z,16.0052
2024-05-09T09:51:22.620Z,15.9636
2024-05-09T09:52:23.028Z,15.9057
2024-05-09T09:53:22.931Z,15.9335
2024-05-09T09:54:25.231Z,15.9085
2024-05-09T09:55:26.062Z,15.9830
2024-05-09T09:56:25.959Z,16.2983
2024-05-09T09:57:26.221Z,16.3928
2024-05-09T09:58:28.563Z,16.7530
2024-05-09T09:59:28.524Z,16.8064
2024-05-09T10:00:33.290Z,17.2735
2024-05-09T10:01:31.911Z,17.2165
2024-05-09T10:02:32.172Z,17.3148
2024-05-09T10:03:32.342Z,16.7883
2024-05-09T10:04:33.417Z,16.9960
2024-05-09T10:05:33.717Z,17.2721
2024-05-09T10:06:33.755Z,17.1449
2024-05-09T10:07:35.924Z,17.1580
2024-05-09T10:08:38.038Z,17.2114
2024-05-09T10:09:40.283Z,17.4290
2024-05-09T10:10:42.690Z,17.7899
2024-05-09T10:12:44.854Z,18.6118
2024-05-09T10:13:47.071Z,18.3161
2024-05-09T10:14:49.367Z,18.3056
2024-05-09T10:15:52.146Z,18.4906
2024-05-09T10:16:52.295Z,18.4153
2024-05-09T10:17:54.712Z,18.1682
2024-05-09T10:18:54.822Z,18.2448
2024-05-09T10:19:54.864Z,17.9341
2024-05-09T10:20:54.932Z,17.9168
2024-05-09T10:21:57.258Z,18.1204
2024-05-09T10:22:57.328Z,17.9853
2024-05-09T10:23:57.645Z,18.0709
2024-05-09T10:25:01.505Z,18.3802
2024-05-09T10:26:03.790Z,18.6864
2024-05-09T10:27:03.616Z,18.6560
2024-05-09T10:28:04.135Z,18.2825
2024-05-09T10:29:06.439Z,18.5944
2024-05-09T10:30:14.412Z,18.3359
2024-05-09T10:31:09.701Z,18.6136
2024-05-09T10:32:11.920Z,18.5023
2024-05-09T10:33:13.008Z,18.3914
2024-05-09T10:34:13.172Z,18.5805
2024-05-09T10:35:13.146Z,18.6656
2024-05-09T10:36:13.319Z,18.7510
2024-05-09T10:37:15.695Z,18.3309
2024-05-09T10:38:15.637Z,17.9332
2024-05-09T10:39:16.014Z,17.6705
2024-05-09T10:40:25.778Z,17.8152
2024-05-09T10:41:19.112Z,17.5364
2024-05-09T10:42:21.311Z,17.1356
2024-05-09T10:43:21.336Z,17.4779
2024-05-09T10:44:21.153Z,17.3625
2024-05-09T10:45:23.487Z,17.5549
2024-05-09T10:46:25.759Z,17.4705
2024-05-09T10:47:28.199Z,17.3545
2024-05-09T10:48:29.323Z,17.4377
2024-05-09T10:49:29.267Z,17.5602
2024-05-09T10:50:34.238Z,17.4521
2024-05-09T10:51:33.226Z,16.5246
2024-05-09T10:52:35.519Z,16.3256
2024-05-09T10:53:37.859Z,16.4969
2024-05-09T10:54:37.894Z,16.0760
2024-05-09T10:55:37.881Z,16.5868
2024-05-09T10:56:37.768Z,17.0865
2024-05-09T10:57:39.986Z,17.2824
2024-05-09T10:58:42.401Z,17.8734
2024-05-09T10:59:42.371Z,18.0134
2024-05-09T11:00:44.794Z,18.2506
2024-05-09T11:01:45.018Z,18.4432
2024-05-09T11:02:45.053Z,18.7636
2024-05-09T11:03:47.572Z,19.0181
2024-05-09T11:04:47.951Z,19.1789
2024-05-09T11:05:47.997Z,19.6635
2024-05-09T11:06:48.073Z,19.2709
2024-05-09T11:07:50.570Z,19.4581
2024-05-09T11:08:50.486Z,19.9812
2024-05-09T11:09:52.903Z,19.5989
2024-05-09T11:10:53.039Z,19.4519
2024-05-09T11:11:53.226Z,19.3620
2024-05-09T11:12:53.293Z,19.4639
2024-05-09T11:13:55.546Z,19.8289
2024-05-09T11:14:57.860Z,19.2717
2024-05-09T11:16:00.179Z,18.6696
2024-05-09T11:17:00.276Z,18.8286
2024-05-09T11:18:02.782Z,18.6547
2024-05-09T11:19:04.916Z,18.5728
2024-05-09T11:20:10.773Z,18.2144
2024-05-09T11:21:06.106Z,17.9857
2024-05-09T11:22:08.570Z,18.8156
2024-05-09T11:23:08.578Z,19.9541
2024-05-09T11:24:11.482Z,22.0642
2024-05-09T11:25:11.853Z,21.5110
2024-05-09T11:26:12.590Z,20.9442
2024-05-09T11:27:12.522Z,20.4009
2024-05-09T11:28:15.046Z,20.0415
2024-05-09T11:29:17.935Z,19.8952
2024-05-09T11:30:24.190Z,20.1313
2024-05-09T11:31:18.255Z,19.9146
2024-05-09T11:32:18.302Z,19.2374
2024-05-09T11:33:19.220Z,19.3812
2024-05-09T11:34:19.373Z,19.1732
2024-05-09T11:35:19.637Z,18.7325
2024-05-09T11:36:19.555Z,18.8796
2024-05-09T11:37:19.635Z,18.4744
2024-05-09T11:38:19.584Z,18.6164
2024-05-09T11:39:21.779Z,18.8473
2024-05-09T11:40:26.035Z,17.7390
2024-05-09T11:41:25.076Z,17.0302
2024-05-09T11:42:25.206Z,17.5523
2024-05-09T11:43:25.475Z,17.9579
2024-05-09T11:44:25.341Z,17.8814
2024-05-09T11:45:27.554Z,18.2528
2024-05-09T11:46:29.703Z,18.4146
2024-05-09T11:47:32.075Z,18.5148
2024-05-09T11:48:32.331Z,18.5553
2024-05-09T11:49:32.613Z,18.7087
2024-05-09T11:50:35.498Z,18.7736
2024-05-09T11:51:33.432Z,18.8091
2024-05-09T11:52:35.665Z,18.9730
2024-05-09T11:53:37.818Z,18.0348
2024-05-09T11:54:40.114Z,17.3719
2024-05-09T11:55:42.284Z,17.7050
2024-05-09T11:56:44.513Z,17.8638
2024-05-09T11:57:46.848Z,17.8889
2024-05-09T11:58:47.136Z,18.0066
2024-05-09T11:59:50.061Z,17.8777
2024-05-09T12:00:50.044Z,17.8907
2024-05-09T12:01:50.295Z,18.0324
2024-05-09T12:02:50.318Z,18.0802
2024-05-09T12:03:52.743Z,17.8809
2024-05-09T12:04:52.814Z,18.0419
2024-05-09T12:05:55.060Z,18.2109
2024-05-09T12:06:57.326Z,18.3123
2024-05-09T12:07:59.450Z,18.4038
2024-05-09T12:09:01.622Z,18.4166
2024-05-09T12:10:06.080Z,18.8534
2024-05-09T12:11:05.753Z,19.4397
2024-05-09T12:12:08.038Z,19.3759
2024-05-09T12:13:10.400Z,19.6858
2024-05-09T12:14:12.676Z,19.5541
2024-05-09T12:15:14.996Z,19.9942
2024-05-09T12:16:17.301Z,20.0071
2024-05-09T12:17:19.609Z,19.6722
2024-05-09T12:18:21.801Z,19.7116
2024-05-09T12:19:24.049Z,19.8965
2024-05-09T12:20:34.727Z,19.5587
2024-05-09T12:21:27.285Z,19.3921
2024-05-09T12:22:29.455Z,19.3718
2024-05-09T12:23:31.641Z,19.2631
2024-05-09T12:24:33.872Z,19.3619
2024-05-09T12:25:36.970Z,18.9575
2024-05-09T12:26:39.133Z,18.6634